Time;durP1;ratioP1;P1;durP2;ratioP2;P2;SDS_P1;SDS_P2;PMS_P1;PMS_P2;Temp;Humidity;BMP_temperature;BMP_pressure;BME280_temperature;BME280_humidity;BME280_pressure;Samples;Min_cycle;Max_cycle;Signal;HPM_P1;HPM_P2
2022/03/05 00:02:23;;;;;;;12.65;7.20;;;;;;;;;;5017148;28;20129;-86
2022/03/05 00:04:49;;;;;;;15.77;8.57;;;;;;;;;;5022798;28;20057;-86
2022/03/05 00:07:15;;;;;;;19.30;9.65;;;;;;;;;;5025381;28;20026;-86
2022/03/05 00:09:41;;;;;;;16.65;9.52;;;;;;;;;;5025994;28;20397;-86
2022/03/05 00:12:06;;;;;;;15.95;8.48;;;;;;;;;;5019029;28;20421;-85
2022/03/05 00:14:32;;;;;;;12.48;7.47;;;;;;;;;;5023494;28;20539;-85
2022/03/05 00:16:57;;;;;;;14.70;7.95;;;;;;;;;;5016359;28;20030;-84
2022/03/05 00:19:23;;;;;;;14.50;8.18;;;;;;;;;;5021945;28;20538;-86
2022/03/05 00:21:48;;;;;;;12.05;7.97;;;;;;;;;;5040244;28;20102;-87
2022/03/05 00:24:14;;;;;;;17.63;8.57;;;;;;;;;;5019708;28;20034;-83
2022/03/05 00:26:39;;;;;;;13.30;8.82;;;;;;;;;;5026368;28;20025;-85
2022/03/05 00:29:05;;;;;;;12.43;8.02;;;;;;;;;;5027747;28;20042;-87
2022/03/05 00:31:30;;;;;;;14.35;8.18;;;;;;;;;;5024638;28;20105;-84
2022/03/05 00:33:56;;;;;;;16.50;8.65;;;;;;;;;;5024742;28;20026;-84
2022/03/05 00:36:21;;;;;;;13.45;7.70;;;;;;;;;;5025522;28;20026;-86
2022/03/05 00:38:47;;;;;;;18.10;9.13;;;;;;;;;;5023935;28;20037;-85
2022/03/05 00:41:12;;;;;;;10.88;7.45;;;;;;;;;;5021578;28;20445;-85
2022/03/05 00:43:38;;;;;;;15.48;8.40;;;;;;;;;;5025644;28;20029;-87
2022/03/05 00:46:03;;;;;;;13.50;7.68;;;;;;;;;;5020578;28;20018;-85
2022/03/05 00:48:29;;;;;;;14.50;8.93;;;;;;;;;;5027916;28;20462;-85
2022/03/05 00:50:54;;;;;;;15.70;8.32;;;;;;;;;;5021852;28;20029;-84
2022/03/05 00:53:21;;;;;;;16.75;9.52;;;;;;;;;;5027164;28;20088;-84
2022/03/05 00:55:47;;;;;;;13.80;8.32;;;;;;;;;;5021577;28;20177;-86
2022/03/05 00:58:14;;;;;;;16.00;8.10;;;;;;;;;;5028675;28;20354;-85
2022/03/05 01:00:40;;;;;;;16.08;9.43;;;;;;;;;;5017959;28;20036;-86
2022/03/05 01:03:06;;;;;;;19.20;10.43;;;;;;;;;;5026301;28;20469;-86
2022/03/05 01:05:31;;;;;;;13.82;7.97;;;;;;;;;;5039926;28;20057;-83
2022/03/05 01:07:57;;;;;;;10.43;7.00;;;;;;;;;;5025797;28;20034;-86
2022/03/05 01:10:22;;;;;;;14.75;8.43;;;;;;;;;;5022180;28;20492;-84
2022/03/05 01:12:47;;;;;;;16.45;8.55;;;;;;;;;;5018147;28;20101;-85
2022/03/05 01:15:13;;;;;;;15.48;8.50;;;;;;;;;;5029625;28;20037;-83
2022/03/05 01:17:38;;;;;;;13.48;7.47;;;;;;;;;;5023067;28;20041;-88
2022/03/05 01:20:05;;;;;;;14.80;9.27;;;;;;;;;;5024076;28;20068;-83
2022/03/05 01:22:31;;;;;;;12.50;7.65;;;;;;;;;;5021911;28;20041;-84
2022/03/05 01:24:56;;;;;;;16.70;9.02;;;;;;;;;;5018030;28;20022;-86
2022/03/05 01:27:22;;;;;;;10.90;7.47;;;;;;;;;;5022400;28;20021;-86
2022/03/05 01:29:48;;;;;;;14.75;8.20;;;;;;;;;;5023902;28;20040;-87
2022/03/05 01:32:14;;;;;;;13.73;7.78;;;;;;;;;;5038490;28;20033;-83
2022/03/05 01:34:39;;;;;;;20.27;9.85;;;;;;;;;;5016900;28;20029;-84
2022/03/05 01:37:05;;;;;;;16.58;9.95;;;;;;;;;;5024768;28;20056;-83
2022/03/05 01:39:30;;;;;;;16.85;10.57;;;;;;;;;;5025654;28;20032;-86
2022/03/05 01:41:56;;;;;;;22.42;13.38;;;;;;;;;;5022411;28;20177;-84
2022/03/05 01:44:25;;;;;;;13.55;8.60;;;;;;;;;;5024689;28;20058;-83
2022/03/05 01:46:51;;;;;;;13.48;8.48;;;;;;;;;;5021693;28;20029;-84
2022/03/05 01:49:17;;;;;;;14.25;8.23;;;;;;;;;;5017576;28;20037;-86
2022/03/05 01:51:43;;;;;;;14.90;8.20;;;;;;;;;;5021852;28;20033;-86
2022/03/05 01:54:10;;;;;;;14.60;8.25;;;;;;;;;;5023566;28;20025;-84
2022/03/05 01:56:37;;;;;;;11.25;7.13;;;;;;;;;;5028728;28;20021;-85
2022/03/05 01:59:04;;;;;;;14.98;8.45;;;;;;;;;;5018891;28;20029;-86
2022/03/05 02:01:30;;;;;;;14.55;7.82;;;;;;;;;;5019750;28;20032;-85
2022/03/05 02:03:56;;;;;;;12.57;7.97;;;;;;;;;;5015672;28;20037;-85
2022/03/05 02:06:23;;;;;;;14.80;9.05;;;;;;;;;;5026760;28;20490;-87
2022/03/05 02:08:49;;;;;;;13.43;8.30;;;;;;;;;;5016306;28;20033;-86
2022/03/05 02:11:15;;;;;;;12.88;8.00;;;;;;;;;;5021187;28;20409;-84
2022/03/05 02:13:41;;;;;;;13.93;7.68;;;;;;;;;;5026987;28;20044;-86
2022/03/05 02:16:07;;;;;;;13.32;7.10;;;;;;;;;;5024106;28;20041;-82
2022/03/05 02:18:33;;;;;;;13.20;8.38;;;;;;;;;;5017050;28;20053;-81
2022/03/05 02:20:59;;;;;;;13.65;8.18;;;;;;;;;;5022776;28;20466;-87
2022/03/05 02:23:24;;;;;;;17.85;8.45;;;;;;;;;;5018653;28;20022;-84
2022/03/05 02:26:02;;;;;;;14.60;8.50;;;;;;;;;;5036177;28;20080;-87
2022/03/05 02:28:30;;;;;;;14.00;8.48;;;;;;;;;;5025449;28;20032;-84
2022/03/05 02:30:56;;;;;;;14.75;8.38;;;;;;;;;;5020692;28;20025;-86
2022/03/05 02:33:21;;;;;;;12.82;7.95;;;;;;;;;;5018610;28;20496;-83
2022/03/05 02:35:47;;;;;;;15.38;9.40;;;;;;;;;;5015683;28;20033;-85
2022/03/05 02:38:15;;;;;;;14.63;8.07;;;;;;;;;;5022553;28;20029;-86
2022/03/05 02:40:43;;;;;;;13.13;8.18;;;;;;;;;;5021858;28;20472;-84
2022/03/05 02:43:09;;;;;;;14.68;8.57;;;;;;;;;;5016676;28;20029;-86
2022/03/05 02:45:35;;;;;;;12.77;8.45;;;;;;;;;;5018203;28;20037;-83
2022/03/05 02:48:03;;;;;;;17.10;8.48;;;;;;;;;;5020408;28;20490;-86
2022/03/05 02:50:29;;;;;;;14.18;7.53;;;;;;;;;;5027524;28;20033;-86
2022/03/05 02:52:54;;;;;;;14.45;8.50;;;;;;;;;;5022362;28;20116;-85
2022/03/05 02:55:20;;;;;;;18.58;10.15;;;;;;;;;;5019339;28;20117;-85
2022/03/05 02:57:46;;;;;;;15.63;8.60;;;;;;;;;;5036772;28;20029;-85
2022/03/05 03:00:12;;;;;;;19.30;10.00;;;;;;;;;;5024118;28;20037;-83
2022/03/05 03:02:38;;;;;;;19.88;9.50;;;;;;;;;;5018417;28;20029;-84
2022/03/05 03:05:05;;;;;;;21.33;10.05;;;;;;;;;;5025419;28;20042;-86
2022/03/05 03:07:31;;;;;;;12.48;8.02;;;;;;;;;;5038546;28;20105;-85
2022/03/05 03:09:58;;;;;;;14.40;7.20;;;;;;;;;;5016796;28;20482;-88
2022/03/05 03:12:25;;;;;;;13.48;7.55;;;;;;;;;;5020673;28;20028;-85
2022/03/05 03:14:50;;;;;;;15.20;7.90;;;;;;;;;;5021654;28;20083;-85
2022/03/05 03:17:17;;;;;;;16.35;8.70;;;;;;;;;;5030126;28;20021;-84
2022/03/05 03:19:42;;;;;;;14.27;7.32;;;;;;;;;;5017598;28;20030;-86
2022/03/05 03:22:08;;;;;;;16.02;8.10;;;;;;;;;;5022916;28;20031;-85
2022/03/05 03:24:34;;;;;;;14.45;7.28;;;;;;;;;;5021746;28;20025;-85
2022/03/05 03:26:59;;;;;;;15.25;8.70;;;;;;;;;;5016795;28;20129;-89
2022/03/05 03:29:25;;;;;;;14.15;7.28;;;;;;;;;;5020360;28;20076;-86
2022/03/05 03:31:50;;;;;;;13.00;7.57;;;;;;;;;;5016069;28;20092;-87
2022/03/05 03:34:15;;;;;;;15.38;7.18;;;;;;;;;;5025567;28;20021;-86
2022/03/05 03:36:41;;;;;;;14.55;8.82;;;;;;;;;;5028730;28;20048;-89
2022/03/05 03:39:06;;;;;;;14.57;8.30;;;;;;;;;;5023224;28;20037;-85
2022/03/05 03:41:32;;;;;;;23.30;8.93;;;;;;;;;;5022100;28;20029;-86
2022/03/05 03:43:57;;;;;;;18.00;9.05;;;;;;;;;;5019490;28;20035;-86
2022/03/05 03:46:23;;;;;;;17.33;8.55;;;;;;;;;;5024851;28;20384;-88
2022/03/05 03:48:48;;;;;;;13.32;7.63;;;;;;;;;;5028972;28;20025;-86
2022/03/05 03:51:14;;;;;;;12.70;7.97;;;;;;;;;;5021507;28;20041;-84
2022/03/05 03:53:39;;;;;;;12.10;7.53;;;;;;;;;;5016833;28;20037;-86
2022/03/05 03:56:05;;;;;;;17.70;9.05;;;;;;;;;;5024186;28;20048;-85
2022/03/05 03:58:31;;;;;;;19.45;10.02;;;;;;;;;;5023967;28;20378;-86
2022/03/05 04:00:56;;;;;;;19.75;10.30;;;;;;;;;;5020466;28;20022;-84
2022/03/05 04:03:22;;;;;;;17.00;9.68;;;;;;;;;;5023838;28;20381;-83
2022/03/05 04:05:47;;;;;;;13.25;7.47;;;;;;;;;;5021576;28;20049;-86
2022/03/05 04:10:57;;;;;;;14.13;8.07;;;;;;;;;;5027319;28;20500;-86
2022/03/05 04:13:22;;;;;;;14.55;8.43;;;;;;;;;;5020237;28;20030;-86
2022/03/05 04:15:48;;;;;;;14.18;7.90;;;;;;;;;;5028631;28;20029;-87
2022/03/05 04:18:14;;;;;;;21.63;11.27;;;;;;;;;;5025833;28;20037;-86
2022/03/05 04:20:39;;;;;;;18.27;8.73;;;;;;;;;;5020759;28;20117;-84
2022/03/05 04:23:05;;;;;;;14.38;8.55;;;;;;;;;;5016509;28;20029;-84
2022/03/05 04:25:30;;;;;;;18.75;9.35;;;;;;;;;;5027347;28;20497;-86
2022/03/05 04:27:56;;;;;;;12.93;7.93;;;;;;;;;;5030313;28;20060;-85
2022/03/05 04:30:21;;;;;;;24.25;12.05;;;;;;;;;;5025202;28;20018;-86
2022/03/05 04:32:47;;;;;;;17.92;9.45;;;;;;;;;;5027842;28;20466;-82
2022/03/05 04:35:12;;;;;;;17.33;10.05;;;;;;;;;;5019836;28;20432;-82
2022/03/05 04:37:39;;;;;;;20.65;9.77;;;;;;;;;;5022042;28;20478;-85
2022/03/05 04:40:06;;;;;;;18.17;8.55;;;;;;;;;;5020146;28;20034;-83
2022/03/05 04:42:32;;;;;;;12.40;8.27;;;;;;;;;;5017663;28;20107;-84
2022/03/05 04:44:58;;;;;;;17.02;9.68;;;;;;;;;;5027151;28;20478;-86
2022/03/05 04:47:24;;;;;;;16.65;9.55;;;;;;;;;;5030261;28;20030;-86
2022/03/05 04:49:50;;;;;;;18.70;9.90;;;;;;;;;;5018519;28;20082;-85
2022/03/05 04:52:15;;;;;;;15.45;8.80;;;;;;;;;;5024878;28;20040;-85
2022/03/05 04:54:41;;;;;;;17.80;9.75;;;;;;;;;;5025866;28;20424;-83
2022/03/05 04:57:06;;;;;;;20.00;9.48;;;;;;;;;;5025998;28;20034;-85
2022/03/05 04:59:32;;;;;;;17.63;9.25;;;;;;;;;;5025881;28;20021;-86
2022/03/05 05:01:58;;;;;;;17.08;9.93;;;;;;;;;;5021089;28;20399;-83
2022/03/05 05:04:24;;;;;;;19.30;9.52;;;;;;;;;;5022672;28;21589;-84
2022/03/05 05:06:49;;;;;;;16.45;8.05;;;;;;;;;;5026502;28;20073;-85
2022/03/05 05:09:15;;;;;;;19.45;9.80;;;;;;;;;;5028903;28;20036;-83
2022/03/05 05:11:42;;;;;;;17.40;8.80;;;;;;;;;;5027863;28;20055;-85
2022/03/05 05:14:08;;;;;;;13.70;8.73;;;;;;;;;;5020843;28;20028;-86
2022/03/05 05:16:34;;;;;;;16.75;9.73;;;;;;;;;;5014324;28;20207;-85
2022/03/05 05:21:43;;;;;;;14.90;8.70;;;;;;;;;;5019796;28;20076;-84
2022/03/05 05:24:09;;;;;;;15.45;9.82;;;;;;;;;;5016153;28;20029;-85
2022/03/05 05:26:34;;;;;;;18.98;9.68;;;;;;;;;;5018988;28;20029;-88
2022/03/05 05:29:00;;;;;;;16.08;9.02;;;;;;;;;;5034973;28;20057;-87
2022/03/05 05:31:25;;;;;;;15.80;8.02;;;;;;;;;;5025912;28;20021;-86
2022/03/05 05:33:51;;;;;;;12.10;8.10;;;;;;;;;;5021523;28;20040;-87
2022/03/05 05:36:17;;;;;;;15.95;8.35;;;;;;;;;;5015989;28;20028;-84
2022/03/05 05:38:43;;;;;;;16.63;9.23;;;;;;;;;;5018366;28;20037;-85
2022/03/05 05:41:08;;;;;;;13.27;8.80;;;;;;;;;;5023780;28;20032;-88
2022/03/05 05:43:34;;;;;;;15.13;8.48;;;;;;;;;;5016869;28;20567;-87
2022/03/05 05:46:00;;;;;;;34.08;16.80;;;;;;;;;;5029809;28;20531;-84
2022/03/05 05:48:26;;;;;;;20.77;10.35;;;;;;;;;;5017621;28;20026;-84
2022/03/05 05:50:51;;;;;;;21.42;10.00;;;;;;;;;;5016493;28;20038;-87
2022/03/05 05:53:17;;;;;;;20.73;10.77;;;;;;;;;;5019486;28;20057;-82
2022/03/05 05:55:42;;;;;;;16.73;9.48;;;;;;;;;;5035700;28;20041;-84
2022/03/05 05:58:08;;;;;;;17.67;9.45;;;;;;;;;;5016091;28;20025;-83
2022/03/05 06:00:33;;;;;;;14.90;9.05;;;;;;;;;;5015066;28;20029;-86
2022/03/05 06:02:59;;;;;;;29.77;16.58;;;;;;;;;;5031006;28;20033;-83
2022/03/05 06:05:24;;;;;;;32.75;17.60;;;;;;;;;;5013570;28;20117;-85
2022/03/05 06:07:50;;;;;;;24.70;13.32;;;;;;;;;;5015789;28;20040;-82
2022/03/05 06:10:15;;;;;;;26.63;14.77;;;;;;;;;;5015906;28;20493;-88
2022/03/05 06:12:41;;;;;;;19.20;13.55;;;;;;;;;;5013935;28;20037;-83
2022/03/05 06:15:08;;;;;;;28.05;14.10;;;;;;;;;;5027459;28;20021;-86
2022/03/05 06:17:34;;;;;;;25.33;13.98;;;;;;;;;;5015497;28;20029;-84
2022/03/05 06:20:00;;;;;;;29.67;15.57;;;;;;;;;;5011552;28;20026;-84
2022/03/05 06:22:26;;;;;;;29.35;14.63;;;;;;;;;;5012743;28;20044;-84
2022/03/05 06:24:51;;;;;;;21.48;13.23;;;;;;;;;;5026629;28;20029;-85
2022/03/05 06:27:17;;;;;;;23.33;14.25;;;;;;;;;;5019227;28;20029;-83
2022/03/05 06:29:42;;;;;;;23.75;13.60;;;;;;;;;;5019926;28;20029;-87
2022/03/05 06:32:08;;;;;;;30.20;15.35;;;;;;;;;;5018390;28;20033;-85
2022/03/05 06:34:33;;;;;;;27.48;15.10;;;;;;;;;;5038534;28;20029;-85
2022/03/05 06:37:00;;;;;;;29.83;16.13;;;;;;;;;;5024901;28;20741;-85
2022/03/05 06:39:26;;;;;;;29.88;17.35;;;;;;;;;;5034048;28;20108;-85
2022/03/05 06:41:51;;;;;;;40.10;18.85;;;;;;;;;;5018227;28;20120;-85
2022/03/05 06:44:17;;;;;;;32.60;18.20;;;;;;;;;;5013683;28;20429;-84
2022/03/05 06:46:43;;;;;;;32.50;16.90;;;;;;;;;;5021352;28;20048;-86
2022/03/05 06:49:08;;;;;;;27.88;16.58;;;;;;;;;;5021495;28;20381;-84
2022/03/05 06:51:34;;;;;;;30.92;17.20;;;;;;;;;;5019630;28;20034;-86
2022/03/05 06:53:59;;;;;;;27.15;16.17;;;;;;;;;;5021674;28;20077;-85
2022/03/05 06:56:25;;;;;;;26.25;14.50;;;;;;;;;;5020674;28;20106;-82
2022/03/05 06:58:50;;;;;;;27.80;16.85;;;;;;;;;;5018204;28;20025;-86
2022/03/05 07:01:16;;;;;;;27.13;17.30;;;;;;;;;;5021217;28;20025;-86
2022/03/05 07:03:41;;;;;;;36.55;20.05;;;;;;;;;;5024832;28;20492;-88
2022/03/05 07:06:07;;;;;;;31.40;18.65;;;;;;;;;;5018763;28;20052;-85
2022/03/05 07:08:32;;;;;;;41.33;20.85;;;;;;;;;;5019782;28;20096;-82
2022/03/05 07:10:58;;;;;;;39.92;21.02;;;;;;;;;;5025444;28;20017;-85
2022/03/05 07:13:23;;;;;;;32.67;18.60;;;;;;;;;;5020418;28;20036;-88
2022/03/05 07:15:49;;;;;;;32.17;17.42;;;;;;;;;;5018100;28;20046;-82
2022/03/05 07:18:14;;;;;;;35.33;17.92;;;;;;;;;;5018693;28;20017;-88
2022/03/05 07:20:40;;;;;;;33.70;19.50;;;;;;;;;;5037601;28;20049;-84
2022/03/05 07:23:06;;;;;;;39.95;20.80;;;;;;;;;;5020958;28;20366;-82
2022/03/05 07:25:39;;;;;;;38.75;19.63;;;;;;;;;;5035727;28;20034;-86
2022/03/05 07:28:08;;;;;;;42.22;19.70;;;;;;;;;;5020021;28;20030;-85
2022/03/05 07:30:37;;;;;;;38.78;19.90;;;;;;;;;;5023552;28;20076;-82
2022/03/05 07:33:04;;;;;;;43.33;21.25;;;;;;;;;;5040448;28;20035;-87
2022/03/05 07:35:29;;;;;;;33.38;19.30;;;;;;;;;;5039882;28;20033;-84
2022/03/05 07:37:55;;;;;;;29.15;19.05;;;;;;;;;;5019196;28;20526;-84
2022/03/05 07:40:21;;;;;;;34.20;19.35;;;;;;;;;;5036091;28;20079;-85
2022/03/05 07:42:46;;;;;;;30.80;18.70;;;;;;;;;;5022014;28;20505;-84
2022/03/05 07:45:12;;;;;;;37.38;20.88;;;;;;;;;;5023503;28;20091;-85
2022/03/05 07:47:38;;;;;;;36.13;19.48;;;;;;;;;;5021036;28;20121;-85
2022/03/05 07:50:04;;;;;;;40.03;19.63;;;;;;;;;;5024318;28;20049;-83
2022/03/05 07:52:30;;;;;;;28.83;17.90;;;;;;;;;;5024546;28;20021;-85
2022/03/05 07:54:55;;;;;;;33.92;16.95;;;;;;;;;;5020051;28;20586;-84
2022/03/05 07:57:21;;;;;;;27.95;17.00;;;;;;;;;;5021076;28;20033;-83
2022/03/05 07:59:47;;;;;;;26.15;15.98;;;;;;;;;;5038222;28;20105;-84
2022/03/05 08:02:15;;;;;;;31.05;17.27;;;;;;;;;;5024937;28;20025;-83
2022/03/05 08:04:41;;;;;;;29.90;15.90;;;;;;;;;;5025298;28;20026;-81
2022/03/05 08:07:07;;;;;;;33.65;17.63;;;;;;;;;;5029510;28;20021;-83
2022/03/05 08:09:35;;;;;;;29.55;17.95;;;;;;;;;;5023044;28;20033;-82
2022/03/05 08:12:02;;;;;;;33.25;18.38;;;;;;;;;;5021004;28;20026;-82
2022/03/05 08:14:27;;;;;;;26.27;17.55;;;;;;;;;;5039843;28;20029;-82
2022/03/05 08:16:53;;;;;;;34.60;18.33;;;;;;;;;;5021460;28;20087;-83
2022/03/05 08:19:18;;;;;;;25.77;16.23;;;;;;;;;;5017480;28;20065;-84
2022/03/05 08:21:44;;;;;;;29.23;17.98;;;;;;;;;;5034334;28;20114;-83
2022/03/05 08:24:10;;;;;;;30.85;15.48;;;;;;;;;;5013940;28;20038;-82
2022/03/05 08:26:37;;;;;;;28.48;15.63;;;;;;;;;;5019983;28;20033;-81
2022/03/05 08:29:03;;;;;;;33.33;18.95;;;;;;;;;;5018246;28;20017;-83
2022/03/05 08:31:31;;;;;;;31.38;17.10;;;;;;;;;;5022290;28;20022;-83
2022/03/05 08:34:01;;;;;;;32.53;18.08;;;;;;;;;;5022448;28;20457;-83
2022/03/05 08:36:27;;;;;;;;;;;;;;;;;;5021204;28;20029;-85
2022/03/05 08:38:52;;;;;;;34.10;16.52;;;;;;;;;;5023394;28;19917;-83
2022/03/05 08:41:17;;;;;;;24.45;16.23;;;;;;;;;;5022871;28;20381;-83
2022/03/05 08:43:43;;;;;;;44.40;21.25;;;;;;;;;;5040150;28;20204;-83
2022/03/05 08:46:09;;;;;;;40.35;19.88;;;;;;;;;;5022251;28;20025;-85
2022/03/05 08:48:35;;;;;;;33.95;19.77;;;;;;;;;;5021064;28;20025;-84
2022/03/05 08:51:01;;;;;;;34.45;20.60;;;;;;;;;;5018117;28;20386;-83
2022/03/05 08:53:27;;;;;;;37.95;21.52;;;;;;;;;;5012986;28;20032;-84
2022/03/05 08:55:53;;;;;;;37.50;21.85;;;;;;;;;;5036941;28;20029;-84
2022/03/05 08:58:18;;;;;;;30.67;19.60;;;;;;;;;;5023108;28;20026;-85
2022/03/05 09:00:45;;;;;;;36.58;22.35;;;;;;;;;;5018432;28;20033;-83
2022/03/05 09:03:11;;;;;;;37.55;21.25;;;;;;;;;;5014738;28;20468;-85
2022/03/05 09:05:36;;;;;;;36.97;22.02;;;;;;;;;;5016289;28;20064;-82
2022/03/05 09:08:02;;;;;;;43.88;23.73;;;;;;;;;;5010802;28;20032;-84
2022/03/05 09:10:29;;;;;;;31.48;19.30;;;;;;;;;;5009860;28;20021;-84
2022/03/05 09:12:55;;;;;;;38.05;21.33;;;;;;;;;;5010363;28;20537;-83
2022/03/05 09:15:20;;;;;;;44.95;24.77;;;;;;;;;;5029709;28;20114;-83
2022/03/05 09:17:46;;;;;;;35.25;19.23;;;;;;;;;;5015221;28;20401;-83
2022/03/05 09:20:12;;;;;;;28.52;19.48;;;;;;;;;;5022768;28;20026;-79
2022/03/05 09:22:37;;;;;;;39.10;19.33;;;;;;;;;;5024016;28;20029;-84
2022/03/05 09:25:04;;;;;;;27.67;16.27;;;;;;;;;;5020032;28;20025;-84
2022/03/05 09:27:30;;;;;;;26.42;15.27;;;;;;;;;;5020961;28;20033;-84
2022/03/05 09:29:56;;;;;;;28.30;14.88;;;;;;;;;;5022041;28;20030;-81
2022/03/05 09:32:21;;;;;;;21.52;15.05;;;;;;;;;;5014854;28;20030;-88
2022/03/05 09:34:47;;;;;;;25.60;15.32;;;;;;;;;;5016236;28;20052;-86
2022/03/05 09:37:13;;;;;;;25.70;15.85;;;;;;;;;;5018247;28;20022;-83
2022/03/05 09:39:39;;;;;;;26.15;15.50;;;;;;;;;;5039940;28;20508;-85
2022/03/05 09:42:05;;;;;;;30.35;17.42;;;;;;;;;;5016352;28;20152;-84
2022/03/05 09:44:31;;;;;;;29.65;15.77;;;;;;;;;;5009106;28;20428;-84
2022/03/05 09:46:57;;;;;;;26.90;15.45;;;;;;;;;;5021958;28;20033;-85
2022/03/05 09:49:24;;;;;;;27.58;16.02;;;;;;;;;;5014068;28;20449;-85
2022/03/05 09:51:50;;;;;;;25.17;15.90;;;;;;;;;;5023130;28;20416;-83
2022/03/05 09:54:15;;;;;;;27.40;17.00;;;;;;;;;;5018471;28;20037;-84
2022/03/05 09:56:41;;;;;;;27.05;16.60;;;;;;;;;;5017261;28;20371;-83
2022/03/05 09:59:07;;;;;;;25.92;16.80;;;;;;;;;;5016231;28;20037;-85
2022/03/05 10:01:33;;;;;;;27.60;15.18;;;;;;;;;;5012247;28;20033;-84
2022/03/05 10:04:01;;;;;;;23.77;15.18;;;;;;;;;;5015243;28;20069;-82
2022/03/05 10:06:30;;;;;;;25.48;15.30;;;;;;;;;;5014124;28;20445;-87
2022/03/05 10:08:56;;;;;;;23.20;14.57;;;;;;;;;;5025923;28;20385;-85
2022/03/05 10:11:39;;;;;;;25.20;14.98;;;;;;;;;;5020732;28;20022;-87
2022/03/05 10:14:17;;;;;;;25.92;16.08;;;;;;;;;;5019631;28;20108;-85
2022/03/05 10:16:43;;;;;;;22.70;15.10;;;;;;;;;;5021730;28;20033;-85
2022/03/05 10:19:19;;;;;;;22.17;14.30;;;;;;;;;;5018328;28;20453;-82
2022/03/05 10:22:05;;;;;;;28.33;17.00;;;;;;;;;;5019027;28;20049;-85
2022/03/05 10:24:32;;;;;;;25.67;16.05;;;;;;;;;;5023590;28;20087;-85
2022/03/05 10:26:59;;;;;;;27.83;18.23;;;;;;;;;;5019821;28;20041;-85
2022/03/05 10:29:34;;;;;;;29.50;17.48;;;;;;;;;;5023250;28;20568;-85
2022/03/05 10:32:04;;;;;;;24.13;16.05;;;;;;;;;;5015311;28;20120;-84
2022/03/05 10:34:53;;;;;;;26.98;17.40;;;;;;;;;;5031081;28;20362;-88
2022/03/05 10:37:20;;;;;;;20.38;12.57;;;;;;;;;;5019455;28;20022;-86
2022/03/05 10:39:47;;;;;;;23.20;15.02;;;;;;;;;;5020715;28;20055;-86
2022/03/05 10:42:24;;;;;;;22.40;14.90;;;;;;;;;;5020632;28;20028;-85
2022/03/05 10:45:08;;;;;;;26.48;14.85;;;;;;;;;;5018547;28;20029;-86
2022/03/05 10:47:38;;;;;;;22.75;14.93;;;;;;;;;;5021579;28;20061;-85
2022/03/05 10:50:21;;;;;;;24.20;16.33;;;;;;;;;;5020991;28;20029;-84
2022/03/05 10:52:50;;;;;;;23.27;14.85;;;;;;;;;;5023272;28;20413;-88
2022/03/05 10:55:17;;;;;;;25.23;15.70;;;;;;;;;;5019713;28;20108;-87
2022/03/05 10:58:22;;;;;;;25.63;15.35;;;;;;;;;;5020715;28;20037;-87
2022/03/05 11:00:50;;;;;;;20.73;15.30;;;;;;;;;;4997912;28;20492;-87
2022/03/05 11:03:15;;;;;;;25.83;15.57;;;;;;;;;;5020780;28;20465;-88
2022/03/05 11:05:41;;;;;;;23.42;15.10;;;;;;;;;;5016639;28;20053;-85
2022/03/05 11:08:07;;;;;;;29.85;15.48;;;;;;;;;;5021037;28;20029;-85
2022/03/05 11:10:33;;;;;;;24.10;15.25;;;;;;;;;;5022896;28;20029;-83
2022/03/05 11:13:02;;;;;;;21.40;14.30;;;;;;;;;;5041410;28;20025;-84
2022/03/05 11:15:29;;;;;;;21.70;14.43;;;;;;;;;;5024258;28;20405;-82
2022/03/05 11:17:57;;;;;;;22.13;15.40;;;;;;;;;;5023400;28;20043;-83
2022/03/05 11:20:23;;;;;;;25.00;15.90;;;;;;;;;;5022960;28;20039;-84
2022/03/05 11:22:50;;;;;;;21.45;15.38;;;;;;;;;;5019354;28;20029;-81
2022/03/05 11:25:22;;;;;;;27.10;17.00;;;;;;;;;;5018744;28;20025;-83
2022/03/05 11:28:06;;;;;;;31.02;16.90;;;;;;;;;;5011367;28;20056;-81
2022/03/05 11:30:42;;;;;;;28.95;16.63;;;;;;;;;;5017225;28;20359;-81
2022/03/05 11:33:22;;;;;;;25.55;16.20;;;;;;;;;;5017055;28;20472;-82
2022/03/05 11:35:48;;;;;;;23.48;15.20;;;;;;;;;;5014049;28;20037;-83
2022/03/05 11:38:37;;;;;;;21.83;14.95;;;;;;;;;;5012700;28;20037;-82
2022/03/05 11:41:21;;;;;;;20.48;14.00;;;;;;;;;;5015452;28;20034;-83
2022/03/05 11:43:47;;;;;;;25.08;16.77;;;;;;;;;;5012337;28;20030;-83
2022/03/05 11:46:24;;;;;;;29.83;18.70;;;;;;;;;;5023738;28;20029;-83
2022/03/05 11:49:04;;;;;;;26.67;18.60;;;;;;;;;;5022510;28;20053;-83
2022/03/05 11:51:30;;;;;;;61.97;30.75;;;;;;;;;;5008327;28;20053;-84
2022/03/05 11:54:12;;;;;;;31.20;18.10;;;;;;;;;;5012518;28;20061;-83
2022/03/05 11:56:38;;;;;;;30.15;19.17;;;;;;;;;;5014954;28;20030;-85
2022/03/05 11:59:33;;;;;;;31.30;18.83;;;;;;;;;;5027216;28;20105;-84
2022/03/05 12:01:59;;;;;;;23.15;16.08;;;;;;;;;;5013591;28;20049;-83
2022/03/05 12:04:28;;;;;;;29.48;16.77;;;;;;;;;;5019922;28;20040;-82
2022/03/05 12:07:12;;;;;;;28.98;18.40;;;;;;;;;;5023496;28;20045;-83
2022/03/05 12:09:52;;;;;;;29.42;17.92;;;;;;;;;;5021094;28;20029;-83
2022/03/05 12:12:18;;;;;;;;;;;;;;;;;;5018401;28;20026;-81
2022/03/05 12:14:59;;;;;;;28.80;16.52;;;;;;;;;;5021308;28;20329;-84
2022/03/05 12:17:26;;;;;;;29.33;16.98;;;;;;;;;;5024347;28;20037;-85
2022/03/05 12:19:53;;;;;;;33.00;19.75;;;;;;;;;;5022788;28;20125;-82
2022/03/05 12:22:19;;;;;;;34.03;20.02;;;;;;;;;;5029830;28;20500;-83
2022/03/05 12:24:45;;;;;;;31.35;18.77;;;;;;;;;;5021501;28;20037;-84
2022/03/05 12:27:17;;;;;;;41.25;24.08;;;;;;;;;;5037484;28;20080;-81
2022/03/05 12:29:48;;;;;;;31.73;18.75;;;;;;;;;;5019138;28;20469;-83
2022/03/05 12:32:14;;;;;;;;;;;;;;;;;;5018234;28;20116;-82
2022/03/05 12:34:40;;;;;;;24.88;16.10;;;;;;;;;;5018269;28;19967;-83
2022/03/05 12:37:05;;;;;;;24.80;15.02;;;;;;;;;;5023675;28;20032;-82
2022/03/05 12:39:31;;;;;;;25.48;15.95;;;;;;;;;;5022718;28;20037;-80
2022/03/05 12:41:56;;;;;;;24.15;16.35;;;;;;;;;;5033786;28;20036;-84
2022/03/05 12:44:22;;;;;;;20.80;14.57;;;;;;;;;;5025020;28;20025;-80
2022/03/05 12:46:48;;;;;;;23.77;14.90;;;;;;;;;;5027675;28;20021;-85
2022/03/05 12:49:16;;;;;;;23.33;13.23;;;;;;;;;;5020944;28;20064;-81
2022/03/05 12:51:42;;;;;;;20.85;13.60;;;;;;;;;;5021939;28;20047;-84
2022/03/05 12:54:08;;;;;;;20.02;13.05;;;;;;;;;;5020403;28;20472;-81
2022/03/05 12:56:37;;;;;;;19.60;12.70;;;;;;;;;;5021212;28;20029;-80
2022/03/05 12:59:04;;;;;;;20.80;11.70;;;;;;;;;;5021880;28;20029;-85
2022/03/05 13:01:30;;;;;;;17.90;11.98;;;;;;;;;;5027165;28;20045;-84
2022/03/05 13:03:58;;;;;;;18.92;12.10;;;;;;;;;;5022413;28;20056;-81
2022/03/05 13:06:25;;;;;;;18.67;12.48;;;;;;;;;;5025461;28;20192;-82
2022/03/05 13:08:50;;;;;;;17.85;11.32;;;;;;;;;;5017902;28;20049;-83
2022/03/05 13:11:17;;;;;;;20.00;12.45;;;;;;;;;;5020387;28;20029;-84
2022/03/05 13:13:48;;;;;;;18.10;12.43;;;;;;;;;;5020702;28;20117;-81
2022/03/05 13:16:23;;;;;;;19.38;12.63;;;;;;;;;;5047607;28;20026;-82
2022/03/05 13:18:58;;;;;;;18.73;12.43;;;;;;;;;;5020975;28;20033;-81
2022/03/05 13:21:24;;;;;;;20.52;12.50;;;;;;;;;;5018785;28;20033;-85
2022/03/05 13:23:50;;;;;;;19.20;12.40;;;;;;;;;;5026162;28;20481;-84
2022/03/05 13:26:16;;;;;;;19.88;11.90;;;;;;;;;;5038632;28;20056;-80
2022/03/05 13:28:41;;;;;;;17.40;11.60;;;;;;;;;;5020447;28;20465;-80
2022/03/05 13:31:07;;;;;;;18.10;12.05;;;;;;;;;;5016272;28;20018;-85
2022/03/05 13:33:41;;;;;;;17.50;12.68;;;;;;;;;;5021617;28;20029;-84
2022/03/05 13:36:23;;;;;;;18.20;12.27;;;;;;;;;;5018038;28;20048;-82
2022/03/05 13:38:50;;;;;;;20.08;11.93;;;;;;;;;;5022409;28;20033;-85
2022/03/05 13:41:24;;;;;;;17.02;11.82;;;;;;;;;;5020630;28;20030;-84
2022/03/05 13:43:49;;;;;;;19.80;12.45;;;;;;;;;;5027516;28;20106;-83
2022/03/05 13:46:18;;;;;;;17.25;11.93;;;;;;;;;;5020081;28;20111;-84
2022/03/05 13:48:59;;;;;;;18.35;12.25;;;;;;;;;;5020013;28;20029;-79
2022/03/05 13:51:30;;;;;;;20.52;12.38;;;;;;;;;;5018859;28;20061;-82
2022/03/05 13:54:05;;;;;;;16.20;11.82;;;;;;;;;;5020257;28;20028;-81
2022/03/05 13:56:45;;;;;;;18.90;13.38;;;;;;;;;;5018432;28;20430;-83
2022/03/05 13:59:12;;;;;;;18.88;12.82;;;;;;;;;;5028930;28;20017;-83
2022/03/05 14:01:40;;;;;;;19.40;13.55;;;;;;;;;;5020433;28;20026;-83
2022/03/05 14:04:17;;;;;;;19.55;14.10;;;;;;;;;;5020674;28;20030;-85
2022/03/05 14:06:46;;;;;;;22.33;14.90;;;;;;;;;;5012792;28;20476;-81
2022/03/05 14:09:37;;;;;;;24.40;14.90;;;;;;;;;;5019983;28;20367;-81
2022/03/05 14:12:04;;;;;;;23.17;14.98;;;;;;;;;;5016909;28;20096;-81
2022/03/05 14:14:56;;;;;;;22.65;14.48;;;;;;;;;;5026075;28;20408;-79
2022/03/05 14:17:33;;;;;;;24.50;15.30;;;;;;;;;;5004818;28;20049;-81
2022/03/05 14:20:11;;;;;;;24.30;15.10;;;;;;;;;;5017471;28;20509;-83
2022/03/05 14:22:52;;;;;;;26.88;15.60;;;;;;;;;;5018981;28;20041;-83
2022/03/05 14:25:24;;;;;;;23.45;16.42;;;;;;;;;;5020692;28;20030;-81
2022/03/05 14:27:58;;;;;;;25.88;15.40;;;;;;;;;;5012133;28;20033;-80
2022/03/05 14:30:25;;;;;;;22.95;16.73;;;;;;;;;;5019055;28;20030;-80
2022/03/05 14:32:51;;;;;;;30.65;18.98;;;;;;;;;;5021604;28;20123;-80